createdAt,value
2023-04-18T00:01:10.803Z,100001.56
2023-04-18T00:03:37.916Z,100002.88
2023-04-18T00:06:04.736Z,99999.59
2023-04-18T00:08:31.223Z,100005.53
2023-04-18T00:10:57.742Z,100004.53
2023-04-18T00:13:25.536Z,100006.00
2023-04-18T00:15:52.027Z,100004.66
2023-04-18T00:18:18.492Z,100000.59
2023-04-18T00:20:45.253Z,100000.03
2023-04-18T00:23:13.382Z,100011.53
2023-04-18T00:25:40.817Z,100019.63
2023-04-18T00:28:07.261Z,100012.19
2023-04-18T00:30:33.790Z,100008.78
2023-04-18T00:33:00.455Z,100005.59
2023-04-18T00:35:28.410Z,100016.03
2023-04-18T00:37:54.933Z,100007.06
2023-04-18T00:40:21.427Z,100017.88
2023-04-18T00:42:47.987Z,100017.00
2023-04-18T00:45:14.548Z,100020.38
2023-04-18T00:47:41.161Z,100023.31
2023-04-18T00:50:09.557Z,100023.75
2023-04-18T00:52:36.799Z,100011.75
2023-04-18T00:55:06.186Z,100024.53
2023-04-18T00:57:33.190Z,100011.53
2023-04-18T01:00:01.283Z,100021.47
2023-04-18T01:02:28.088Z,100017.81
2023-04-18T01:04:54.689Z,100016.94
2023-04-18T01:07:21.219Z,100025.28
2023-04-18T01:09:48.119Z,100022.59
2023-04-18T01:12:14.655Z,100022.47
2023-04-18T01:14:44.116Z,100019.28
2023-04-18T01:17:10.615Z,100014.91
2023-04-18T01:19:37.529Z,100019.81
2023-04-18T01:22:03.994Z,100017.13
2023-04-18T01:24:30.569Z,100021.50
2023-04-18T01:26:57.294Z,100021.63
2023-04-18T01:29:23.763Z,100022.16
2023-04-18T01:31:50.571Z,100022.28
2023-04-18T01:34:17.320Z,100018.25
2023-04-18T01:36:43.962Z,100024.63
2023-04-18T01:39:10.621Z,100025.72
2023-04-18T01:41:37.165Z,100023.91
2023-04-18T01:44:04.105Z,100021.06
2023-04-18T01:46:31.013Z,100030.84
2023-04-18T01:48:57.867Z,100019.84
2023-04-18T01:51:24.404Z,100023.13
2023-04-18T01:53:50.896Z,100028.66
2023-04-18T01:56:17.608Z,100029.38
2023-04-18T01:58:44.109Z,100023.25
2023-04-18T02:01:10.811Z,100026.44
2023-04-18T02:03:37.581Z,100024.72
2023-04-18T02:06:05.539Z,100028.50
2023-04-18T02:08:32.267Z,100030.28
2023-04-18T02:10:59.097Z,100031.63
2023-04-18T02:13:25.565Z,100038.50
2023-04-18T02:15:52.066Z,100042.06
2023-04-18T02:18:18.618Z,100036.91
2023-04-18T02:20:45.253Z,100046.00
2023-04-18T02:23:11.818Z,100046.75
2023-04-18T02:25:38.375Z,100037.91
2023-04-18T02:28:04.981Z,100045.50
2023-04-18T02:30:31.473Z,100054.81
2023-04-18T02:32:57.997Z,100042.91
2023-04-18T02:35:25.621Z,100041.84
2023-04-18T02:37:52.150Z,100047.44
2023-04-18T02:40:19.098Z,100046.47
2023-04-18T02:42:46.096Z,100044.88
2023-04-18T02:45:12.575Z,100048.06
2023-04-18T02:47:47.480Z,100046.34
2023-04-18T02:50:21.514Z,100049.16
2023-04-18T02:52:48.040Z,100050.75
2023-04-18T02:55:14.637Z,100047.69
2023-04-18T02:57:41.074Z,100051.63
2023-04-18T03:00:08.126Z,100051.50
2023-04-18T03:02:34.792Z,100051.63
2023-04-18T03:05:01.407Z,100056.00
2023-04-18T03:07:27.964Z,100056.00
2023-04-18T03:09:54.490Z,100056.88
2023-04-18T03:12:21.003Z,100056.13
2023-04-18T03:14:47.533Z,100061.28
2023-04-18T03:17:14.238Z,100055.66
2023-04-18T03:19:40.772Z,100058.84
2023-04-18T03:22:07.280Z,100066.19
2023-04-18T03:24:33.781Z,100058.84
2023-04-18T03:27:00.386Z,100068.53
2023-04-18T03:29:26.929Z,100058.94
2023-04-18T03:31:53.450Z,100066.06
2023-04-18T03:34:19.968Z,100068.97
2023-04-18T03:36:47.940Z,100075.22
2023-04-18T03:39:14.958Z,100078.28
2023-04-18T03:41:41.500Z,100074.75
2023-04-18T03:44:07.986Z,100072.78
2023-04-18T03:46:35.095Z,100080.13
2023-04-18T03:49:01.684Z,100076.09
2023-04-18T03:51:33.560Z,100085.88
2023-04-18T03:54:00.113Z,100093.19
2023-04-18T03:56:26.678Z,100095.78
2023-04-18T03:58:53.219Z,100093.44
2023-04-18T04:01:19.693Z,100100.28
2023-04-18T04:03:46.317Z,100101.25
2023-04-18T04:06:13.054Z,100104.94
2023-04-18T04:08:39.532Z,100107.50
2023-04-18T04:11:06.061Z,100097.59
2023-04-18T04:13:32.580Z,100109.22
2023-04-18T04:15:59.146Z,100106.75
2023-04-18T04:18:25.626Z,100118.16
2023-04-18T04:20:52.103Z,100119.13
2023-04-18T04:23:18.566Z,100122.56
2023-04-18T04:25:45.076Z,100122.06
2023-04-18T04:28:11.634Z,100121.22
2023-04-18T04:30:38.166Z,100116.09
2023-04-18T04:33:04.748Z,100123.31
2023-04-18T04:35:31.351Z,100121.00
2023-04-18T04:37:57.826Z,100125.88
2023-04-18T04:40:24.313Z,100124.88
2023-04-18T04:42:50.790Z,100123.66
2023-04-18T04:45:17.313Z,100124.38
2023-04-18T04:47:43.857Z,100130.38
2023-04-18T04:50:10.847Z,100136.41
2023-04-18T04:52:37.298Z,100136.88
2023-04-18T04:55:04.031Z,100146.41
2023-04-18T04:57:30.532Z,100138.22
2023-04-18T04:59:57.034Z,100144.34
2023-04-18T05:02:23.718Z,100146.41
2023-04-18T05:04:50.401Z,100149.97
2023-04-18T05:07:16.893Z,100144.59
2023-04-18T05:09:43.429Z,100141.66
2023-04-18T05:12:09.916Z,100156.84
2023-04-18T05:14:36.447Z,100157.44
2023-04-18T05:17:02.987Z,100147.78
2023-04-18T05:19:29.565Z,100157.25
2023-04-18T05:21:56.069Z,100153.31
2023-04-18T05:24:22.590Z,100150.63
2023-04-18T05:26:49.160Z,100154.94
2023-04-18T05:29:15.649Z,100155.38
2023-04-18T05:31:42.101Z,100156.25
2023-04-18T05:34:08.598Z,100157.00
2023-04-18T05:36:35.250Z,100154.31
2023-04-18T05:39:01.737Z,100164.47
2023-04-18T05:41:28.241Z,100151.88
2023-04-18T05:44:04.946Z,100157.28
2023-04-18T05:46:32.834Z,100159.72
2023-04-18T05:48:59.433Z,100166.59
2023-04-18T05:51:25.927Z,100163.53
2023-04-18T05:53:52.484Z,100168.41
2023-04-18T05:56:18.958Z,100165.22
2023-04-18T05:58:45.440Z,100172.09
2023-04-18T06:01:12.009Z,100170.47
2023-04-18T06:03:38.705Z,100174.88
2023-04-18T06:06:05.670Z,100174.53
2023-04-18T06:08:32.192Z,100175.88
2023-04-18T06:10:58.749Z,100166.09
2023-04-18T06:13:25.234Z,100174.31
2023-04-18T06:15:51.787Z,100179.31
2023-04-18T06:18:18.278Z,100164.16
2023-04-18T06:20:44.735Z,100176.19
2023-04-18T06:23:11.257Z,100175.94
2023-04-18T06:25:37.787Z,100175.56
2023-04-18T06:28:04.469Z,100172.13
2023-04-18T06:30:30.997Z,100173.84
2023-04-18T06:32:57.606Z,100177.66
2023-04-18T06:35:26.369Z,100179.00
2023-04-18T06:37:53.181Z,100182.19
2023-04-18T06:40:19.762Z,100179.63
2023-04-18T06:42:46.244Z,100181.09
2023-04-18T06:45:12.830Z,100180.22
2023-04-18T06:47:40.596Z,100180.09
2023-04-18T06:50:07.925Z,100170.91
2023-04-18T06:52:36.083Z,100173.38
2023-04-18T06:55:02.631Z,100174.81
2023-04-18T06:57:29.169Z,100179.59
2023-04-18T06:59:55.659Z,100181.06
2023-04-18T07:02:22.297Z,100180.47
2023-04-18T07:04:48.909Z,100175.78
2023-04-18T07:07:15.505Z,100174.31
2023-04-18T07:09:42.041Z,100183.13
2023-04-18T07:12:08.534Z,100186.91
2023-04-18T07:14:35.078Z,100176.72
2023-04-18T07:17:01.841Z,100185.78
2023-04-18T07:19:28.348Z,100183.34
2023-04-18T07:21:54.930Z,100181.25
2023-04-18T07:24:21.481Z,100181.38
2023-04-18T07:26:47.975Z,100191.19
2023-04-18T07:29:14.488Z,100196.84
2023-04-18T07:31:41.006Z,100192.50
2023-04-18T07:34:07.482Z,100189.44
2023-04-18T07:36:34.000Z,100191.09
2023-04-18T07:39:01.544Z,100195.72
2023-04-18T07:41:28.158Z,100188.81
2023-04-18T07:43:54.661Z,100202.34
2023-04-18T07:46:21.235Z,100198.91
2023-04-18T07:48:47.779Z,100205.72
2023-04-18T07:51:14.402Z,100200.09
2023-04-18T07:53:40.931Z,100206.47
2023-04-18T07:56:07.524Z,100205.84
2023-04-18T07:58:34.693Z,100213.41
2023-04-18T08:01:01.241Z,100209.72
2023-04-18T08:03:28.035Z,100215.72
2023-04-18T08:05:54.860Z,100220.00
2023-04-18T08:08:21.407Z,100217.88
2023-04-18T08:10:47.877Z,100222.31
2023-04-18T08:13:14.388Z,100230.16
2023-04-18T08:15:41.380Z,100227.72
2023-04-18T08:18:07.875Z,100228.06
2023-04-18T08:20:34.418Z,100232.25
2023-04-18T08:25:30.400Z,100230.28
2023-04-18T08:27:57.199Z,100240.06
2023-04-18T08:30:23.822Z,100237.63
2023-04-18T08:32:50.387Z,100239.50
2023-04-18T08:35:17.042Z,100236.81
2023-04-18T08:37:43.779Z,100233.63
2023-04-18T08:40:10.498Z,100244.69
2023-04-18T08:42:37.392Z,100241.50
2023-04-18T08:45:05.443Z,100238.19
2023-04-18T08:47:31.968Z,100236.00
2023-04-18T08:49:58.582Z,100242.72
2023-04-18T08:52:27.269Z,100241.09
2023-04-18T08:54:53.918Z,100243.31
2023-04-18T08:57:20.523Z,100249.09
2023-04-18T08:59:49.644Z,100242.09
2023-04-18T09:02:17.497Z,100244.56
2023-04-18T09:04:45.710Z,100246.03
2023-04-18T09:07:13.710Z,100238.03
2023-04-18T09:09:51.355Z,100255.44
2023-04-18T09:15:08.800Z,100248.81
2023-04-18T09:17:38.013Z,100253.00
2023-04-18T09:20:06.371Z,100258.50
2023-04-18T09:22:50.515Z,100251.28
2023-04-18T09:25:28.093Z,100255.72
2023-04-18T09:27:55.871Z,100248.34
2023-04-18T09:30:31.363Z,100249.84
2023-04-18T09:32:59.389Z,100254.00
2023-04-18T09:35:26.188Z,100259.63
2023-04-18T09:37:53.168Z,100257.19
2023-04-18T09:40:20.305Z,100261.34
2023-04-18T09:42:47.864Z,100269.56
2023-04-18T09:45:14.354Z,100266.75
2023-04-18T09:47:40.922Z,100268.00
2023-04-18T09:50:09.452Z,100268.84
2023-04-18T09:52:39.301Z,100268.59
2023-04-18T09:55:08.580Z,100262.34
2023-04-18T09:57:37.220Z,100262.41
2023-04-18T10:00:10.592Z,100261.94
2023-04-18T10:03:06.811Z,100262.25
2023-04-18T10:05:43.107Z,100256.03
2023-04-18T10:08:10.610Z,100260.63
2023-04-18T10:10:38.655Z,100258.66
2023-04-18T10:13:06.988Z,100258.13
2023-04-18T10:15:33.754Z,100257.63
2023-04-18T10:18:05.782Z,100261.78
2023-04-18T10:20:34.548Z,100255.94
2023-04-18T10:23:35.002Z,100248.84
2023-04-18T10:26:03.523Z,100251.91
2023-04-18T10:28:55.858Z,100259.41
2023-04-18T10:31:27.640Z,100253.44
2023-04-18T10:34:04.603Z,100259.31
2023-04-18T10:36:33.176Z,100252.09
2023-04-18T10:39:00.741Z,100251.63
2023-04-18T10:41:32.116Z,100248.38
2023-04-18T10:44:08.666Z,100245.28
2023-04-18T10:46:40.536Z,100250.97
2023-04-18T10:49:26.228Z,100253.31
2023-04-18T10:51:56.688Z,100254.13
2023-04-18T10:54:28.974Z,100253.56
2023-04-18T10:56:57.622Z,100250.72
2023-04-18T10:59:25.491Z,100253.78
2023-04-18T11:01:57.195Z,100244.25
2023-04-18T11:04:24.970Z,100245.91
2023-04-18T11:06:53.655Z,100244.59
2023-04-18T11:09:21.645Z,100251.44
2023-04-18T11:12:03.542Z,100245.69
2023-04-18T11:14:47.747Z,100252.53
2023-04-18T11:17:25.728Z,100250.16
2023-04-18T11:20:14.568Z,100247.31
2023-04-18T11:22:49.485Z,100250.75
2023-04-18T11:25:19.248Z,100249.06
2023-04-18T11:27:47.731Z,100250.16
2023-04-18T11:30:15.246Z,100246.50
2023-04-18T11:32:41.992Z,100251.69
2023-04-18T11:35:10.101Z,100250.75
2023-04-18T11:37:37.793Z,100252.00
2023-04-18T11:40:05.577Z,100253.22
2023-04-18T11:42:33.566Z,100251.47
2023-04-18T11:45:00.394Z,100248.03
2023-04-18T11:47:33.107Z,100243.78
2023-04-18T11:50:04.705Z,100248.66
2023-04-18T11:52:32.279Z,100249.00
2023-04-18T11:55:24.202Z,100241.03
2023-04-18T11:58:01.116Z,100240.84
2023-04-18T12:00:30.745Z,100235.97
2023-04-18T12:02:57.872Z,100238.28
2023-04-18T12:05:28.312Z,100237.66
2023-04-18T12:07:55.337Z,100237.97
2023-04-18T12:10:21.816Z,100237.63
2023-04-18T12:12:58.952Z,100236.59
2023-04-18T12:15:27.362Z,100231.94
2023-04-18T12:18:06.353Z,100241.22
2023-04-18T12:20:45.227Z,100230.41
2023-04-18T12:23:29.812Z,100230.78
2023-04-18T12:26:16.154Z,100233.13
2023-04-18T12:28:45.070Z,100236.28
2023-04-18T12:31:11.654Z,100231.56
2023-04-18T12:33:38.216Z,100233.88
2023-04-18T12:36:05.068Z,100234.41
2023-04-18T12:38:31.602Z,100227.13
2023-04-18T12:40:58.140Z,100233.19
2023-04-18T12:43:24.669Z,100229.88
2023-04-18T12:45:51.195Z,100230.97
2023-04-18T12:48:17.737Z,100221.38
2023-04-18T12:50:44.427Z,100227.75
2023-04-18T12:53:10.943Z,100222.69
2023-04-18T12:55:37.470Z,100222.47
2023-04-18T12:58:04.042Z,100227.94
2023-04-18T13:00:31.748Z,100224.41
2023-04-18T13:02:58.673Z,100227.75
2023-04-18T13:05:29.787Z,100219.84
2023-04-18T13:08:15.495Z,100218.59
2023-04-18T13:10:43.289Z,100220.66
2023-04-18T13:13:09.811Z,100220.56
2023-04-18T13:15:36.312Z,100222.19
2023-04-18T13:18:04.050Z,100222.53
2023-04-18T13:20:30.633Z,100216.53
2023-04-18T13:22:57.124Z,100213.84
2023-04-18T13:25:23.646Z,100212.41
2023-04-18T13:27:50.150Z,100222.47
2023-04-18T13:30:16.624Z,100216.97
2023-04-18T13:32:43.255Z,100214.53
2023-04-18T13:35:11.769Z,100215.41
2023-04-18T13:37:38.955Z,100219.56
2023-04-18T13:40:06.608Z,100212.44
2023-04-18T13:42:39.016Z,100218.31
2023-04-18T13:45:06.181Z,100223.75
2023-04-18T13:47:32.746Z,100218.22
2023-04-18T13:49:59.308Z,100221.84
2023-04-18T13:52:26.301Z,100213.00
2023-04-18T13:54:53.108Z,100214.22
2023-04-18T13:57:19.833Z,100214.91
2023-04-18T13:59:46.422Z,100215.72
2023-04-18T14:02:13.026Z,100218.63
2023-04-18T14:04:39.759Z,100213.00
2023-04-18T14:07:06.469Z,100213.59
2023-04-18T14:09:33.270Z,100205.63
2023-04-18T14:11:59.853Z,100223.09
2023-04-18T14:14:26.390Z,100211.56
2023-04-18T14:16:52.940Z,100216.13
2023-04-18T14:19:19.509Z,100220.38
2023-04-18T14:21:46.735Z,100220.28
2023-04-18T14:24:13.095Z,100225.84
2023-04-18T14:26:39.629Z,100220.19
2023-04-18T14:29:06.174Z,100220.56
2023-04-18T14:31:32.827Z,100219.50
2023-04-18T14:33:59.344Z,100221.59
2023-04-18T14:36:25.869Z,100222.78
2023-04-18T14:38:52.436Z,100220.34
2023-04-18T14:41:18.957Z,100225.22
2023-04-18T14:43:45.430Z,100220.56
2023-04-18T14:46:15.375Z,100225.94
2023-04-18T14:48:42.505Z,100234.19
2023-04-18T14:51:09.038Z,100231.47
2023-04-18T14:53:35.598Z,100229.00
2023-04-18T14:56:02.102Z,100227.88
2023-04-18T14:58:28.598Z,100226.63
2023-04-18T15:00:55.143Z,100222.91
2023-04-18T15:03:21.926Z,100225.22
2023-04-18T15:05:48.556Z,100226.66
2023-04-18T15:08:15.327Z,100215.50
2023-04-18T15:10:42.653Z,100217.94
2023-04-18T15:13:09.749Z,100216.09
2023-04-18T15:15:36.424Z,100223.59
2023-04-18T15:18:03.200Z,100222.38
2023-04-18T15:20:29.816Z,100219.91
2023-04-18T15:22:57.276Z,100221.25
2023-04-18T15:25:23.782Z,100222.81
2023-04-18T15:27:50.301Z,100220.09
2023-04-18T15:30:16.807Z,100215.84
2023-04-18T15:32:43.388Z,100214.22
2023-04-18T15:35:10.542Z,100220.63
2023-04-18T15:37:37.628Z,100222.47
2023-04-18T15:40:05.002Z,100224.44
2023-04-18T15:42:31.533Z,100223.34
2023-04-18T15:44:58.097Z,100223.59
2023-04-18T15:47:24.629Z,100217.19
2023-04-18T15:49:51.175Z,100218.91
2023-04-18T15:52:17.780Z,100225.16
2023-04-18T15:54:44.309Z,100220.50
2023-04-18T15:57:11.306Z,100224.78
2023-04-18T15:59:37.863Z,100227.66
2023-04-18T16:02:04.479Z,100225.94
2023-04-18T16:04:31.121Z,100224.59
2023-04-18T16:06:57.696Z,100232.31
2023-04-18T16:09:24.289Z,100225.09
2023-04-18T16:11:50.795Z,100226.91
2023-04-18T16:14:17.370Z,100226.44
2023-04-18T16:16:43.934Z,100225.94
2023-04-18T16:19:10.468Z,100227.19
2023-04-18T16:21:37.010Z,100227.03
2023-04-18T16:24:03.618Z,100232.06
2023-04-18T16:26:30.146Z,100231.81
2023-04-18T16:28:56.788Z,100227.41
2023-04-18T16:31:23.566Z,100240.50
2023-04-18T16:33:50.105Z,100236.38
2023-04-18T16:36:16.624Z,100236.38
2023-04-18T16:38:43.168Z,100236.63
2023-04-18T16:41:09.683Z,100243.84
2023-04-18T16:43:36.187Z,100239.06
2023-04-18T16:46:03.181Z,100241.91
2023-04-18T16:48:29.730Z,100246.31
2023-04-18T16:50:56.410Z,100245.69
2023-04-18T16:53:23.781Z,100245.94
2023-04-18T16:55:50.912Z,100236.88
2023-04-18T16:58:17.401Z,100241.56
2023-04-18T17:00:43.900Z,100241.56
2023-04-18T17:03:10.507Z,100248.03
2023-04-18T17:05:37.432Z,100246.34
2023-04-18T17:08:04.032Z,100244.72
2023-04-18T17:10:30.999Z,100244.72
2023-04-18T17:12:58.437Z,100247.56
2023-04-18T17:15:26.220Z,100253.84
2023-04-18T17:17:54.309Z,100246.84
2023-04-18T17:20:20.977Z,100246.72
2023-04-18T17:22:47.470Z,100255.66
2023-04-18T17:25:14.060Z,100253.63
2023-04-18T17:27:40.583Z,100253.75
2023-04-18T17:30:07.899Z,100259.00
2023-04-18T17:32:34.239Z,100253.47
2023-04-18T17:35:00.755Z,100259.63
2023-04-18T17:37:27.215Z,100246.25
2023-04-18T17:39:53.752Z,100249.69
2023-04-18T17:42:20.241Z,100252.63
2023-04-18T17:44:46.730Z,100256.91
2023-04-18T17:47:13.206Z,100249.78
2023-04-18T17:49:39.718Z,100255.19
2023-04-18T17:52:06.534Z,100250.78
2023-04-18T17:54:33.076Z,100253.47
2023-04-18T17:56:59.670Z,100264.41
2023-04-18T17:59:26.127Z,100265.28
2023-04-18T18:01:52.750Z,100256.56
2023-04-18T18:04:19.654Z,100270.06
2023-04-18T18:06:56.985Z,100269.81
2023-04-18T18:09:23.563Z,100264.66
2023-04-18T18:11:50.059Z,100273.81
2023-04-18T18:14:16.530Z,100269.28
2023-04-18T18:16:43.357Z,100265.97
2023-04-18T18:19:09.849Z,100269.28
2023-04-18T18:21:36.381Z,100271.13
2023-04-18T18:24:03.036Z,100277.38
2023-04-18T18:26:29.520Z,100272.75
2023-04-18T18:28:56.081Z,100271.03
2023-04-18T18:31:22.682Z,100275.47
2023-04-18T18:33:49.197Z,100266.59
2023-04-18T18:36:15.730Z,100273.81
2023-04-18T18:38:42.276Z,100280.34
2023-04-18T18:41:08.960Z,100270.50
2023-04-18T18:43:35.465Z,100270.41
2023-04-18T18:46:02.040Z,100276.78
2023-04-18T18:48:28.641Z,100265.00
2023-04-18T18:50:55.180Z,100271.38
2023-04-18T18:53:21.785Z,100268.81
2023-04-18T18:55:48.305Z,100276.91
2023-04-18T18:58:14.874Z,100274.47
2023-04-18T19:00:41.402Z,100285.13
2023-04-18T19:03:07.966Z,100277.28
2023-04-18T19:05:34.529Z,100280.25
2023-04-18T19:08:01.046Z,100276.41
2023-04-18T19:10:27.572Z,100274.59
2023-04-18T19:12:54.072Z,100278.16
2023-04-18T19:15:20.592Z,100276.16
2023-04-18T19:17:47.133Z,100273.47
2023-04-18T19:20:13.698Z,100272.63
2023-04-18T19:22:41.435Z,100273.47
2023-04-18T19:25:08.743Z,100268.94
2023-04-18T19:27:35.311Z,100276.91
2023-04-18T19:30:02.015Z,100273.22
2023-04-18T19:32:30.238Z,100274.09
2023-04-18T19:34:56.777Z,100268.81
2023-04-18T19:37:23.287Z,100271.50
2023-04-18T19:39:49.784Z,100280.34
2023-04-18T19:42:16.440Z,100274.22
2023-04-18T19:44:42.955Z,100272.50
2023-04-18T19:47:09.436Z,100281.44
2023-04-18T19:49:35.911Z,100284.13
2023-04-18T19:52:02.398Z,100281.44
2023-04-18T19:54:31.421Z,100283.16
2023-04-18T19:56:57.881Z,100275.19
2023-04-18T19:59:24.461Z,100273.34
2023-04-18T20:01:50.922Z,100262.53
2023-04-18T20:04:17.690Z,100268.81
2023-04-18T20:06:44.383Z,100260.84
2023-04-18T20:09:10.860Z,100265.00
2023-04-18T20:11:37.380Z,100275.81
2023-04-18T20:14:03.882Z,100265.97
2023-04-18T20:16:31.701Z,100265.25
2023-04-18T20:18:58.273Z,100265.25
2023-04-18T20:21:24.805Z,100266.25
2023-04-18T20:23:51.311Z,100262.78
2023-04-18T20:26:17.910Z,100262.94
2023-04-18T20:28:44.433Z,100265.63
2023-04-18T20:31:11.354Z,100260.22
2023-04-18T20:33:37.905Z,100262.94
2023-04-18T20:36:05.274Z,100260.22
2023-04-18T20:38:31.741Z,100254.09
2023-04-18T20:40:58.305Z,100257.53
2023-04-18T20:43:24.795Z,100252.25
2023-04-18T20:45:51.459Z,100254.09
2023-04-18T20:48:18.295Z,100257.66
2023-04-18T20:50:44.860Z,100248.94
2023-04-18T20:53:11.363Z,100252.38
2023-04-18T20:55:37.833Z,100249.19
2023-04-18T20:58:04.350Z,100250.31
2023-04-18T21:00:30.857Z,100249.72
2023-04-18T21:02:57.384Z,100248.59
2023-04-18T21:05:23.954Z,100252.16
2023-04-18T21:07:50.454Z,100254.97
2023-04-18T21:10:16.973Z,100253.03
2023-04-18T21:12:43.470Z,100242.22
2023-04-18T21:15:10.420Z,100239.53
2023-04-18T21:17:36.948Z,100230.81
2023-04-18T21:20:03.615Z,100233.53
2023-04-18T21:22:30.114Z,100232.78
2023-04-18T21:24:56.574Z,100238.91
2023-04-18T21:27:23.113Z,100231.66
2023-04-18T21:29:49.634Z,100227.38
2023-04-18T21:32:16.194Z,100229.97
2023-04-18T21:34:42.680Z,100226.53
2023-04-18T21:37:09.147Z,100220.28
2023-04-18T21:39:35.677Z,100225.69
2023-04-18T21:42:02.185Z,100230.09
2023-04-18T21:44:28.660Z,100227.63
2023-04-18T21:46:56.648Z,100219.41
2023-04-18T21:49:23.149Z,100228.47
2023-04-18T21:51:49.664Z,100228.47
2023-04-18T21:54:16.727Z,100223.09
2023-04-18T21:56:43.336Z,100220.38
2023-04-18T21:59:10.010Z,100222.38
2023-04-18T22:01:36.579Z,100231.44
2023-04-18T22:04:03.228Z,100229.59
2023-04-18T22:06:30.745Z,100229.59
2023-04-18T22:08:57.258Z,100226.28
2023-04-18T22:11:24.366Z,100223.09
2023-04-18T22:13:50.950Z,100227.63
2023-04-18T22:16:17.452Z,100225.94
2023-04-18T22:18:43.964Z,100221.03
2023-04-18T22:21:10.431Z,100222.97
2023-04-18T22:23:36.998Z,100216.00
2023-04-18T22:26:03.562Z,100221.28
2023-04-18T22:28:30.091Z,100218.56
2023-04-18T22:30:56.648Z,100211.44
2023-04-18T22:33:23.186Z,100208.53
2023-04-18T22:35:49.706Z,100213.78
2023-04-18T22:38:16.256Z,100203.47
2023-04-18T22:40:42.773Z,100211.44
2023-04-18T22:43:09.315Z,100208.03
2023-04-18T22:45:35.837Z,100201.53
2023-04-18T22:48:02.347Z,100204.22
2023-04-18T22:50:28.885Z,100194.28
2023-04-18T22:52:55.449Z,100200.31
2023-04-18T22:55:22.058Z,100195.03
2023-04-18T22:57:48.557Z,100190.97
2023-04-18T23:00:15.315Z,100194.31
2023-04-18T23:02:43.328Z,100194.06
2023-04-18T23:05:09.964Z,100194.06
2023-04-18T23:07:36.457Z,100192.59
2023-04-18T23:10:05.610Z,100183.41
2023-04-18T23:12:32.148Z,100177.50
2023-04-18T23:14:58.668Z,100179.72
2023-04-18T23:17:25.222Z,100178.88
2023-04-18T23:19:51.762Z,100173.72
2023-04-18T23:22:18.251Z,100179.00
2023-04-18T23:24:44.765Z,100180.13
2023-04-18T23:27:11.220Z,100180.34
2023-04-18T23:29:39.006Z,100177.50
2023-04-18T23:32:05.935Z,100172.72
2023-04-18T23:34:32.507Z,100172.72
2023-04-18T23:36:59.604Z,100174.34
2023-04-18T23:39:26.930Z,100177.78
2023-04-18T23:41:53.319Z,100169.56
2023-04-18T23:44:19.887Z,100167.34
2023-04-18T23:46:47.308Z,100173.56
2023-04-18T23:49:14.171Z,100165.75
2023-04-18T23:54:27.424Z,100158.66
2023-04-18T23:56:53.908Z,100157.66
2023-04-18T23:59:20.357Z,100154.72
